createdAt,value
2018-01-13T00:00:55.751Z,96313
2018-01-13T00:06:23.985Z,96310
2018-01-13T00:17:30.006Z,96320
2018-01-13T00:22:58.206Z,96317
2018-01-13T00:28:27.354Z,96308
2018-01-13T00:33:56.201Z,96303
2018-01-13T00:39:25.028Z,96299
2018-01-13T00:44:54.021Z,96300
2018-01-13T00:50:22.528Z,96301
2018-01-13T00:56:01.793Z,96287
2018-01-13T01:01:31.589Z,96289
2018-01-13T01:06:59.804Z,96283
2018-01-13T01:12:28.031Z,96284
2018-01-13T01:24:42.774Z,96294
2018-01-13T01:30:26.651Z,96279
2018-01-13T01:35:55.806Z,96284
2018-01-13T01:41:24.538Z,96278
2018-01-13T01:46:55.544Z,96284
2018-01-13T01:52:24.747Z,96287
2018-01-13T01:57:52.949Z,96277
2018-01-13T02:03:24.505Z,96280
2018-01-13T02:08:53.480Z,96271
2018-01-13T02:14:22.657Z,96276
2018-01-13T02:20:04.514Z,96277
2018-01-13T02:25:32.707Z,96281
2018-01-13T02:37:14.785Z,96278
2018-01-13T02:43:03.376Z,96272
2018-01-13T02:48:31.927Z,96274
2018-01-13T02:54:00.128Z,96265
2018-01-13T02:59:28.352Z,96267
2018-01-13T03:04:58.028Z,96264
2018-01-13T03:10:32.356Z,96270
2018-01-13T03:22:03.680Z,96256
2018-01-13T03:27:31.897Z,96255
2018-01-13T03:39:04.795Z,96245
2018-01-13T03:44:33.016Z,96233
2018-01-13T03:50:30.091Z,96220
2018-01-13T03:56:29.884Z,96222
2018-01-13T04:02:30.133Z,96212
2018-01-13T04:07:58.668Z,96219
2018-01-13T04:13:27.343Z,96211
2018-01-13T04:19:02.028Z,96215
2018-01-13T04:24:31.624Z,96207
2018-01-13T04:30:06.110Z,96209
2018-01-13T04:35:34.842Z,96212
2018-01-13T04:41:03.378Z,96212
2018-01-13T04:46:31.674Z,96210
2018-01-13T04:52:00.026Z,96208
2018-01-13T04:57:31.527Z,96209
2018-01-13T05:02:59.755Z,96194
2018-01-13T05:08:28.739Z,96198
2018-01-13T05:13:56.990Z,96194
2018-01-13T05:19:32.737Z,96196
2018-01-13T05:25:01.502Z,96202
2018-01-13T05:30:32.498Z,96215
2018-01-13T05:36:01.096Z,96215
2018-01-13T05:41:30.769Z,96212
2018-01-13T05:47:09.627Z,96212
2018-01-13T05:52:37.836Z,96215
2018-01-13T05:58:17.976Z,96223
2018-01-13T06:03:47.652Z,96230
2018-01-13T06:09:19.052Z,96231
2018-01-13T06:14:47.270Z,96223
2018-01-13T06:20:15.500Z,96222
2018-01-13T06:25:43.703Z,96220
2018-01-13T06:31:19.141Z,96213
2018-01-13T06:36:59.838Z,96219
2018-01-13T06:42:28.041Z,96227
2018-01-13T06:54:17.006Z,96215
2018-01-13T06:59:51.626Z,96221
2018-01-13T07:05:27.159Z,96219
2018-01-13T07:10:57.489Z,96218
2018-01-13T07:16:26.477Z,96208
2018-01-13T07:22:00.284Z,96211
2018-01-13T07:27:29.312Z,96217
2018-01-13T07:33:03.246Z,96212
2018-01-13T07:38:31.436Z,96207
2018-01-13T07:44:00.847Z,96217
2018-01-13T07:49:29.593Z,96218
2018-01-13T07:54:57.833Z,96210
2018-01-13T08:00:30.717Z,96213
2018-01-13T08:06:04.644Z,96213
2018-01-13T08:11:32.889Z,96207
2018-01-13T08:17:04.158Z,96209
2018-01-13T08:28:08.949Z,96200
2018-01-13T08:39:39.247Z,96207
2018-01-13T08:45:07.459Z,96198
2018-01-13T08:50:36.533Z,96203
2018-01-13T08:56:04.849Z,96202
2018-01-13T09:01:33.656Z,96195
2018-01-13T09:07:14.581Z,96198
2018-01-13T09:12:45.826Z,96200
2018-01-13T09:18:15.840Z,96203
2018-01-13T09:23:44.354Z,96198
2018-01-13T09:29:12.860Z,96194
2018-01-13T09:34:41.122Z,96200
2018-01-13T09:40:09.352Z,96190
2018-01-13T09:45:37.545Z,96188
2018-01-13T09:51:05.775Z,96200
2018-01-13T09:56:35.213Z,96191
2018-01-13T10:02:03.433Z,96189
2018-01-13T10:07:31.887Z,96194
2018-01-13T10:13:03.132Z,96188
2018-01-13T10:18:31.387Z,96179
2018-01-13T10:23:59.966Z,96170
2018-01-13T10:29:29.109Z,96173
2018-01-13T10:35:10.558Z,96172
2018-01-13T10:46:34.450Z,96159
2018-01-13T10:52:09.244Z,96148
2018-01-13T10:57:37.465Z,96139
2018-01-13T11:03:11.656Z,96142
2018-01-13T11:08:39.903Z,96135
2018-01-13T11:14:08.736Z,96134
2018-01-13T11:19:38.213Z,96136
2018-01-13T11:25:06.701Z,96123
2018-01-13T11:30:35.964Z,96117
2018-01-13T11:36:06.802Z,96114
2018-01-13T11:41:38.910Z,96110
2018-01-13T11:47:12.463Z,96102
2018-01-13T11:52:41.917Z,96107
2018-01-13T11:58:10.741Z,96112
2018-01-13T12:09:52.682Z,96092
2018-01-13T12:15:23.807Z,96090
2018-01-13T12:20:52.041Z,96080
2018-01-13T12:26:20.621Z,96080
2018-01-13T12:31:48.878Z,96071
2018-01-13T12:37:18.544Z,96063
2018-01-13T12:42:49.844Z,96060
2018-01-13T12:48:19.192Z,96058
2018-01-13T12:53:50.483Z,96054
2018-01-13T12:59:19.765Z,96067
2018-01-13T13:04:47.988Z,96061
2018-01-13T13:10:16.220Z,96063
2018-01-13T13:15:44.457Z,96056
2018-01-13T13:21:13.551Z,96054
2018-01-13T13:27:01.974Z,96061
2018-01-13T13:32:31.396Z,96055
2018-01-13T13:38:03.925Z,96053
2018-01-13T13:43:32.152Z,96052
2018-01-13T13:49:05.967Z,96041
2018-01-13T13:54:35.086Z,96045
2018-01-13T14:00:04.183Z,96052
2018-01-13T14:05:35.824Z,96060
2018-01-13T14:11:04.149Z,96053
2018-01-13T14:16:33.198Z,96063
2018-01-13T14:22:10.413Z,96056
2018-01-13T14:27:38.638Z,96054
2018-01-13T14:33:07.779Z,96067
2018-01-13T14:38:35.992Z,96054
2018-01-13T14:44:04.464Z,96068
2018-01-13T14:49:33.640Z,96069
2018-01-13T14:55:01.830Z,96076
2018-01-13T15:00:30.069Z,96066
2018-01-13T15:05:58.385Z,96069
2018-01-13T15:11:28.677Z,96077
2018-01-13T15:17:00.729Z,96056
2018-01-13T15:22:31.708Z,96058
2018-01-13T15:28:19.331Z,96063
2018-01-13T15:33:48.629Z,96074
2018-01-13T15:39:18.109Z,96076
2018-01-13T15:44:46.424Z,96078
2018-01-13T15:50:14.660Z,96075
2018-01-13T15:55:43.850Z,96078
2018-01-13T16:01:12.064Z,96086
2018-01-13T16:06:40.291Z,96084
2018-01-13T16:12:08.517Z,96087
2018-01-13T16:17:36.744Z,96095
2018-01-13T16:23:07.819Z,96089
2018-01-13T16:28:36.262Z,96080
2018-01-13T16:34:04.457Z,96082
2018-01-13T16:39:33.139Z,96074
2018-01-13T16:45:03.080Z,96078
2018-01-13T16:50:31.498Z,96083
2018-01-13T16:56:01.689Z,96077
2018-01-13T17:01:30.013Z,96082
2018-01-13T17:07:02.712Z,96076
2018-01-13T17:12:31.949Z,96084
2018-01-13T17:18:01.515Z,96082
2018-01-13T17:23:34.472Z,96083
2018-01-13T17:29:23.694Z,96084
2018-01-13T17:34:51.974Z,96079
2018-01-13T17:40:28.812Z,96077
2018-01-13T17:45:58.064Z,96078
2018-01-13T17:51:26.275Z,96065
2018-01-13T17:56:56.451Z,96071
2018-01-13T18:02:32.308Z,96063
2018-01-13T18:08:09.679Z,96068
2018-01-13T18:13:38.812Z,96063
2018-01-13T18:19:12.269Z,96061
2018-01-13T18:24:40.467Z,96058
2018-01-13T18:30:08.690Z,96059
2018-01-13T18:35:43.038Z,96065
2018-01-13T18:41:13.256Z,96062
2018-01-13T18:46:42.236Z,96052
2018-01-13T18:52:10.448Z,96057
2018-01-13T18:57:39.768Z,96064
2018-01-13T19:03:09.282Z,96061
2018-01-13T19:08:37.742Z,96061
2018-01-13T19:14:17.892Z,96062
2018-01-13T19:19:51.578Z,96052
2018-01-13T19:25:31.060Z,96042
2018-01-13T19:30:59.326Z,96043
2018-01-13T19:36:55.703Z,96036
2018-01-13T19:42:30.500Z,96023
2018-01-13T19:47:58.958Z,96029
2018-01-13T19:53:31.594Z,96035
2018-01-13T19:58:59.854Z,96042
2018-01-13T20:04:28.093Z,96031
2018-01-13T20:09:57.562Z,96026
2018-01-13T20:15:30.144Z,96023
2018-01-13T20:21:01.031Z,96022
2018-01-13T20:26:30.130Z,96026
2018-01-13T20:31:58.369Z,96029
2018-01-13T20:37:26.622Z,96024
2018-01-13T20:42:54.932Z,96019
2018-01-13T20:48:24.985Z,96010
2018-01-13T20:53:53.188Z,96024
2018-01-13T20:59:35.933Z,96020
2018-01-13T21:05:04.243Z,96014
2018-01-13T21:10:32.454Z,96017
2018-01-13T21:16:08.815Z,96004
2018-01-13T21:21:37.247Z,95998
2018-01-13T21:27:07.221Z,95995
2018-01-13T21:32:35.515Z,96001
2018-01-13T21:38:07.862Z,95991
2018-01-13T21:43:36.927Z,95992
2018-01-13T21:49:06.012Z,95983
2018-01-13T21:54:35.259Z,95990
2018-01-13T22:00:05.053Z,95992
2018-01-13T22:05:34.062Z,95992
2018-01-13T22:11:07.989Z,95980
2018-01-13T22:16:36.226Z,95983
2018-01-13T22:22:06.203Z,95981
2018-01-13T22:27:34.568Z,95980
2018-01-13T22:33:03.600Z,95974
2018-01-13T22:38:31.862Z,95965
2018-01-13T22:44:00.073Z,95961
2018-01-13T22:49:33.915Z,95962
2018-01-13T22:55:05.939Z,95955
2018-01-13T23:00:55.017Z,95959
2018-01-13T23:06:25.050Z,95957
2018-01-13T23:12:07.343Z,95949
2018-01-13T23:17:39.915Z,95945
2018-01-13T23:23:08.229Z,95939
2018-01-13T23:28:36.914Z,95929
2018-01-13T23:34:06.162Z,95935
2018-01-13T23:39:39.820Z,95926
2018-01-13T23:45:08.207Z,95924
2018-01-13T23:50:38.834Z,95910
2018-01-13T23:56:08.030Z,95910
